Time;durP1;ratioP1;P1;durP2;ratioP2;P2;SDS_P1;SDS_P2;PMS_P1;PMS_P2;Temp;Humidity;BMP_temperature;BMP_pressure;BME280_temperature;BME280_humidity;BME280_pressure;Samples;Min_cycle;Max_cycle;Signal;HPM_P1;HPM_P2
2021/06/26 00:01:38;;;;;;;;;;;13.80;85.50;;;;;;5056922;28;19939;-66
2021/06/26 00:04:05;;;;;;;;;;;13.80;86.00;;;;;;5059166;28;19991;-66
2021/06/26 00:06:33;;;;;;;;;;;13.80;86.10;;;;;;5058657;28;20019;-67
2021/06/26 00:08:58;;;;;;;;;;;13.70;86.50;;;;;;5061914;28;19963;-67
2021/06/26 00:11:24;;;;;;;;;;;13.70;86.70;;;;;;5062048;28;20016;-66
2021/06/26 00:13:49;;;;;;;;;;;13.70;86.60;;;;;;5059651;28;19951;-67
2021/06/26 00:16:15;;;;;;;;;;;13.60;86.60;;;;;;5060712;28;20361;-66
2021/06/26 00:18:40;;;;;;;;;;;13.60;85.70;;;;;;5061644;28;20019;-66
2021/06/26 00:21:06;;;;;;;;;;;13.50;85.70;;;;;;5058349;28;20359;-67
2021/06/26 00:23:31;;;;;;;;;;;13.50;86.60;;;;;;5040996;28;20388;-66
2021/06/26 00:25:57;;;;;;;;;;;13.60;87.40;;;;;;5041454;28;20008;-66
2021/06/26 00:28:22;;;;;;;;;;;13.50;86.40;;;;;;5043372;28;20550;-66
2021/06/26 00:30:47;;;;;;;;;;;13.50;87.50;;;;;;5055356;28;20356;-66
2021/06/26 00:33:13;;;;;;;;;;;13.50;86.40;;;;;;5061473;28;19936;-66
2021/06/26 00:35:38;;;;;;;;;;;13.40;86.90;;;;;;5054584;28;20396;-67
2021/06/26 00:38:04;;;;;;;;;;;13.40;85.80;;;;;;5059926;28;19952;-66
2021/06/26 00:40:29;;;;;;;;;;;13.40;86.60;;;;;;5056347;28;19924;-66
2021/06/26 00:42:55;;;;;;;;;;;13.30;87.20;;;;;;5057055;28;19920;-66
2021/06/26 00:45:20;;;;;;;;;;;13.40;87.40;;;;;;5058393;28;20062;-65
2021/06/26 00:47:46;;;;;;;;;;;13.30;86.00;;;;;;5055613;28;20329;-66
2021/06/26 00:50:12;;;;;;;;;;;13.20;87.20;;;;;;5060312;28;19923;-66
2021/06/26 00:52:37;;;;;;;;;;;13.20;88.20;;;;;;5055159;28;20411;-67
2021/06/26 00:55:03;;;;;;;;;;;13.20;87.70;;;;;;5060737;28;20213;-66
2021/06/26 00:57:33;;;;;;;;;;;13.20;87.70;;;;;;5059022;28;20313;-66
2021/06/26 00:59:58;;;;;;;;;;;13.30;87.30;;;;;;5060609;28;19998;-66
2021/06/26 01:02:24;;;;;;;;;;;13.40;87.60;;;;;;5057188;28;19924;-66
2021/06/26 01:04:49;;;;;;;;;;;13.40;87.40;;;;;;5054862;28;20022;-67
2021/06/26 01:07:15;;;;;;;;;;;13.50;86.80;;;;;;5058820;28;19908;-66
2021/06/26 01:09:41;;;;;;;;;;;13.40;87.30;;;;;;5060227;28;20403;-66
2021/06/26 01:12:06;;;;;;;;;;;13.50;87.50;;;;;;5061782;28;19920;-66
2021/06/26 01:14:32;;;;;;;;;;;13.40;87.40;;;;;;5061162;28;20342;-66
2021/06/26 01:17:03;;;;;;;;;;;13.40;87.50;;;;;;5061747;28;19939;-66
2021/06/26 01:19:28;;;;;;;;;;;13.40;87.40;;;;;;5059175;28;19956;-67
2021/06/26 01:21:54;;;;;;;;;;;13.40;87.40;;;;;;5054800;28;19982;-67
2021/06/26 01:24:20;;;;;;;;;;;13.30;87.80;;;;;;5058529;28;19943;-66
2021/06/26 01:26:46;;;;;;;;;;;13.30;88.10;;;;;;5057248;28;19912;-66
2021/06/26 01:29:12;;;;;;;;;;;13.30;88.00;;;;;;5061995;28;20280;-66
2021/06/26 01:31:38;;;;;;;;;;;13.10;86.90;;;;;;5055167;28;20353;-66
2021/06/26 01:34:03;;;;;;;;;;;13.10;87.80;;;;;;5053395;28;19931;-66
2021/06/26 01:36:29;;;;;;;;;;;13.00;88.00;;;;;;5060792;28;20008;-66
2021/06/26 01:38:59;;;;;;;;;;;13.00;87.70;;;;;;5062193;28;19912;-66
2021/06/26 01:41:27;;;;;;;;;;;13.00;87.40;;;;;;5061043;28;19917;-66
2021/06/26 01:43:53;;;;;;;;;;;12.90;87.30;;;;;;5051098;28;19927;-66
2021/06/26 01:46:18;;;;;;;;;;;12.80;88.00;;;;;;5059562;28;19924;-66
2021/06/26 01:48:44;;;;;;;;;;;12.80;90.00;;;;;;5056285;28;19919;-65
2021/06/26 01:51:09;;;;;;;;;;;12.80;90.30;;;;;;5056246;28;19989;-66
2021/06/26 01:53:35;;;;;;;;;;;12.70;89.50;;;;;;5060405;28;19920;-66
2021/06/26 01:56:00;;;;;;;;;;;12.70;89.70;;;;;;5054049;28;20066;-65
2021/06/26 01:58:26;;;;;;;;;;;12.70;88.70;;;;;;5049719;28;19917;-66
2021/06/26 02:00:51;;;;;;;;;;;12.60;89.30;;;;;;5058479;28;20149;-66
2021/06/26 02:03:17;;;;;;;;;;;12.60;88.70;;;;;;5056598;28;20006;-65
2021/06/26 02:05:42;;;;;;;;;;;12.60;88.70;;;;;;5053139;28;20024;-65
2021/06/26 02:08:08;;;;;;;;;;;12.50;90.00;;;;;;5054089;28;20014;-66
2021/06/26 02:10:33;;;;;;;;;;;12.50;89.40;;;;;;5051025;28;19943;-66
2021/06/26 02:12:59;;;;;;;;;;;12.50;89.10;;;;;;5050093;28;20011;-65
2021/06/26 02:15:25;;;;;;;;;;;12.40;88.90;;;;;;5059821;28;20123;-66
2021/06/26 02:17:50;;;;;;;;;;;12.40;89.50;;;;;;5041069;28;19923;-65
2021/06/26 02:20:16;;;;;;;;;;;12.40;89.60;;;;;;5062106;28;19924;-65
2021/06/26 02:22:45;;;;;;;;;;;12.30;89.30;;;;;;5051404;28;20255;-66
2021/06/26 02:25:11;;;;;;;;;;;12.30;89.40;;;;;;5056209;28;19916;-65
2021/06/26 02:27:37;;;;;;;;;;;12.30;89.10;;;;;;5052280;28;20138;-65
2021/06/26 02:30:03;;;;;;;;;;;12.30;89.20;;;;;;5057274;28;19963;-66
2021/06/26 02:32:29;;;;;;;;;;;12.20;89.70;;;;;;5053994;28;20379;-66
2021/06/26 02:34:55;;;;;;;;;;;12.10;90.40;;;;;;5057560;28;20016;-65
2021/06/26 02:37:21;;;;;;;;;;;12.10;90.40;;;;;;5056993;28;19991;-66
2021/06/26 02:39:46;;;;;;;;;;;12.10;89.50;;;;;;5048810;28;19920;-66
2021/06/26 02:42:12;;;;;;;;;;;12.10;89.60;;;;;;5061743;28;19962;-66
2021/06/26 02:44:37;;;;;;;;;;;12.00;90.10;;;;;;5059577;28;19927;-66
2021/06/26 02:47:03;;;;;;;;;;;12.00;90.30;;;;;;5060203;28;19920;-66
2021/06/26 02:49:29;;;;;;;;;;;12.00;90.50;;;;;;5059553;28;19916;-66
2021/06/26 02:51:54;;;;;;;;;;;11.90;90.60;;;;;;5059070;28;19931;-66
2021/06/26 02:54:20;;;;;;;;;;;12.00;90.80;;;;;;5061348;28;20360;-66
2021/06/26 02:56:45;;;;;;;;;;;12.00;91.30;;;;;;5062233;28;19974;-66
2021/06/26 02:59:11;;;;;;;;;;;12.00;91.20;;;;;;5061253;28;19972;-66
2021/06/26 03:01:36;;;;;;;;;;;12.00;90.90;;;;;;5049904;28;19970;-65
2021/06/26 03:04:02;;;;;;;;;;;12.00;90.30;;;;;;5056103;28;19920;-65
2021/06/26 03:06:27;;;;;;;;;;;12.00;90.70;;;;;;5058186;28;19916;-65
2021/06/26 03:08:53;;;;;;;;;;;12.00;90.90;;;;;;5058847;28;19912;-65
2021/06/26 03:11:18;;;;;;;;;;;12.00;90.60;;;;;;5055355;28;20011;-65
2021/06/26 03:13:44;;;;;;;;;;;12.00;90.80;;;;;;5058534;28;19935;-66
2021/06/26 03:16:09;;;;;;;;;;;12.00;91.00;;;;;;5056806;28;19943;-65
2021/06/26 03:18:36;;;;;;;;;;;12.00;91.20;;;;;;5060191;28;19935;-65
2021/06/26 03:21:02;;;;;;;;;;;12.00;92.00;;;;;;5059115;28;19921;-66
2021/06/26 03:23:27;;;;;;;;;;;12.00;92.00;;;;;;5055666;28;19935;-65
2021/06/26 03:25:53;;;;;;;;;;;12.00;91.90;;;;;;5058309;28;20354;-66
2021/06/26 03:28:18;;;;;;;;;;;12.10;91.90;;;;;;5059088;28;20054;-65
2021/06/26 03:30:44;;;;;;;;;;;12.10;91.50;;;;;;5054959;28;19916;-65
2021/06/26 03:33:09;;;;;;;;;;;12.10;91.10;;;;;;5053813;28;19920;-66
2021/06/26 03:35:35;;;;;;;;;;;12.10;91.40;;;;;;5054475;28;19974;-66
2021/06/26 03:38:00;;;;;;;;;;;12.20;91.30;;;;;;5054926;28;19913;-66
2021/06/26 03:40:26;;;;;;;;;;;12.20;91.20;;;;;;5057605;28;20015;-65
2021/06/26 03:42:51;;;;;;;;;;;12.20;91.30;;;;;;5052802;28;20529;-65
2021/06/26 03:45:17;;;;;;;;;;;12.20;91.30;;;;;;5059100;28;19927;-65
2021/06/26 03:47:42;;;;;;;;;;;12.30;90.90;;;;;;5056723;28;19925;-65
2021/06/26 03:50:08;;;;;;;;;;;12.30;90.60;;;;;;5047747;28;19927;-65
2021/06/26 03:52:34;;;;;;;;;;;12.40;90.40;;;;;;5064626;28;20019;-66
2021/06/26 03:54:59;;;;;;;;;;;12.40;89.90;;;;;;5063096;28;19919;-68
2021/06/26 03:57:24;;;;;;;;;;;12.50;89.70;;;;;;5061115;28;19916;-67
2021/06/26 03:59:50;;;;;;;;;;;12.60;90.20;;;;;;5063139;28;19916;-65
2021/06/26 04:02:15;;;;;;;;;;;12.60;89.70;;;;;;5061874;28;20311;-66
2021/06/26 04:04:41;;;;;;;;;;;12.60;89.80;;;;;;5044924;28;20107;-67
2021/06/26 04:07:06;;;;;;;;;;;12.80;90.00;;;;;;5064280;28;19920;-66
2021/06/26 04:09:32;;;;;;;;;;;13.00;89.20;;;;;;5063004;28;20095;-66
2021/06/26 04:11:57;;;;;;;;;;;13.10;88.80;;;;;;5059214;28;20256;-66
2021/06/26 04:14:23;;;;;;;;;;;13.30;88.00;;;;;;5037425;28;19939;-65
2021/06/26 04:16:48;;;;;;;;;;;13.50;89.00;;;;;;5058230;28;19970;-66
2021/06/26 04:19:14;;;;;;;;;;;13.60;88.30;;;;;;5061803;28;19935;-66
2021/06/26 04:21:40;;;;;;;;;;;13.60;87.90;;;;;;5062416;28;19952;-66
2021/06/26 04:24:06;;;;;;;;;;;13.70;87.10;;;;;;5061493;28;20358;-66
2021/06/26 04:26:31;;;;;;;;;;;13.80;86.80;;;;;;5060611;28;19924;-66
2021/06/26 04:28:57;;;;;;;;;;;13.90;87.60;;;;;;5061883;28;20071;-65
2021/06/26 04:31:23;;;;;;;;;;;13.90;87.50;;;;;;5054864;28;19921;-65
2021/06/26 04:33:48;;;;;;;;;;;14.00;87.10;;;;;;5053223;28;19924;-66
2021/06/26 04:36:14;;;;;;;;;;;14.00;87.20;;;;;;5059779;28;19917;-66
2021/06/26 04:38:41;;;;;;;;;;;14.10;86.70;;;;;;5062518;28;20302;-66
2021/06/26 04:41:06;;;;;;;;;;;14.20;86.40;;;;;;5053696;28;20052;-66
2021/06/26 04:43:32;;;;;;;;;;;14.40;86.00;;;;;;5062644;28;20003;-67
2021/06/26 04:45:58;;;;;;;;;;;14.60;85.20;;;;;;5060541;28;20344;-66
2021/06/26 04:48:28;;;;;;;;;;;14.80;83.90;;;;;;5055224;28;20039;-66
2021/06/26 04:50:54;;;;;;;;;;;14.90;84.60;;;;;;5051198;28;20421;-66
2021/06/26 04:53:19;;;;;;;;;;;15.00;83.90;;;;;;5061213;28;20027;-67
2021/06/26 04:55:51;;;;;;;;;;;15.00;82.40;;;;;;5059282;28;19917;-66
2021/06/26 04:58:17;;;;;;;;;;;15.10;81.20;;;;;;5062767;28;19913;-66
2021/06/26 05:00:44;;;;;;;;;;;15.20;81.00;;;;;;5060430;28;20310;-66
2021/06/26 05:03:09;;;;;;;;;;;15.30;80.60;;;;;;5051706;28;20006;-66
2021/06/26 05:05:35;;;;;;;;;;;15.40;80.00;;;;;;5053936;28;20032;-66
2021/06/26 05:08:00;;;;;;;;;;;15.60;80.40;;;;;;5053052;28;19924;-67
2021/06/26 05:10:26;;;;;;;;;;;15.80;79.30;;;;;;5037778;28;20011;-66
2021/06/26 05:12:51;;;;;;;;;;;16.10;76.60;;;;;;5057781;28;19987;-66
2021/06/26 05:15:17;;;;;;;;;;;16.40;75.10;;;;;;5056552;28;19934;-65
2021/06/26 05:17:42;;;;;;;;;;;16.50;75.30;;;;;;5061107;28;20434;-67
2021/06/26 05:20:08;;;;;;;;;;;16.70;73.80;;;;;;5058715;28;19924;-67
2021/06/26 05:22:33;;;;;;;;;;;16.90;73.30;;;;;;5057496;28;20059;-66
2021/06/26 05:24:59;;;;;;;;;;;17.00;73.80;;;;;;5058489;28;19948;-66
2021/06/26 05:27:24;;;;;;;;;;;17.10;74.30;;;;;;5057647;28;19998;-67
2021/06/26 05:29:50;;;;;;;;;;;17.20;75.40;;;;;;5055204;28;20027;-66
2021/06/26 05:32:15;;;;;;;;;;;17.20;75.60;;;;;;5056003;28;20391;-67
2021/06/26 05:34:41;;;;;;;;;;;17.20;72.90;;;;;;5057035;28;19965;-67
2021/06/26 05:37:06;;;;;;;;;;;17.30;75.40;;;;;;5060725;28;19912;-66
2021/06/26 05:39:32;;;;;;;;;;;17.40;75.90;;;;;;5053877;28;19913;-67
2021/06/26 05:41:57;;;;;;;;;;;17.50;73.40;;;;;;5055078;28;19932;-67
2021/06/26 05:44:23;;;;;;;;;;;17.50;74.30;;;;;;5057998;28;20003;-67
2021/06/26 05:46:48;;;;;;;;;;;17.50;77.30;;;;;;5058470;28;19974;-67
2021/06/26 05:49:14;;;;;;;;;;;17.50;78.20;;;;;;5056664;28;19978;-67
2021/06/26 05:51:39;;;;;;;;;;;17.60;79.10;;;;;;5057751;28;19916;-67
2021/06/26 05:54:05;;;;;;;;;;;17.70;79.40;;;;;;5062926;28;20004;-67
2021/06/26 05:56:31;;;;;;;;;;;17.70;79.80;;;;;;5057879;28;19985;-67
2021/06/26 05:58:57;;;;;;;;;;;17.70;79.30;;;;;;5057059;28;19974;-67
2021/06/26 06:01:24;;;;;;;;;;;17.70;78.20;;;;;;5058233;28;19986;-67
2021/06/26 06:03:50;;;;;;;;;;;17.60;78.60;;;;;;5053576;28;20069;-68
2021/06/26 06:06:15;;;;;;;;;;;17.60;79.00;;;;;;5051002;28;20011;-68
2021/06/26 06:08:41;;;;;;;;;;;17.60;79.10;;;;;;5058699;28;19928;-68
2021/06/26 06:11:06;;;;;;;;;;;17.70;78.90;;;;;;5050110;28;19913;-67
2021/06/26 06:13:32;;;;;;;;;;;17.70;79.40;;;;;;5057761;28;20387;-68
2021/06/26 06:15:58;;;;;;;;;;;17.80;80.20;;;;;;5054944;28;19970;-67
2021/06/26 06:18:23;;;;;;;;;;;17.90;79.20;;;;;;5057501;28;19928;-66
2021/06/26 06:20:49;;;;;;;;;;;18.10;78.50;;;;;;5056090;28;19920;-68
2021/06/26 06:23:14;;;;;;;;;;;18.40;76.60;;;;;;5056753;28;19931;-67
2021/06/26 06:25:40;;;;;;;;;;;18.50;76.00;;;;;;5059293;28;19919;-69
2021/06/26 06:28:05;;;;;;;;;;;18.70;75.40;;;;;;5037849;28;19954;-69
2021/06/26 06:30:32;;;;;;;;;;;19.00;72.60;;;;;;5057758;28;19922;-68
2021/06/26 06:32:58;;;;;;;;;;;19.00;69.00;;;;;;5056297;28;20264;-67
2021/06/26 06:35:24;;;;;;;;;;;19.10;70.30;;;;;;5058240;28;19920;-67
2021/06/26 06:37:50;;;;;;;;;;;19.30;69.70;;;;;;5055434;28;20284;-68
2021/06/26 06:40:15;;;;;;;;;;;19.50;66.70;;;;;;5055012;28;19939;-68
2021/06/26 06:42:42;;;;;;;;;;;19.80;68.60;;;;;;5052902;28;20002;-68
2021/06/26 06:45:08;;;;;;;;;;;20.10;68.10;;;;;;5057635;28;20398;-69
2021/06/26 06:47:33;;;;;;;;;;;20.30;67.40;;;;;;5057436;28;19943;-68
2021/06/26 06:49:59;;;;;;;;;;;20.20;66.60;;;;;;5038580;28;19916;-68
2021/06/26 06:52:24;;;;;;;;;;;20.50;65.90;;;;;;5051613;28;19939;-69
2021/06/26 06:54:50;;;;;;;;;;;20.50;65.30;;;;;;5054917;28;19939;-68
2021/06/26 06:57:20;;;;;;;;;;;20.50;66.70;;;;;;5057684;28;19909;-67
2021/06/26 06:59:45;;;;;;;;;;;20.50;64.70;;;;;;5060870;28;19912;-67
2021/06/26 07:02:11;;;;;;;;;;;20.60;63.70;;;;;;5057570;28;19913;-67
2021/06/26 07:04:36;;;;;;;;;;;20.70;63.20;;;;;;5057550;28;20421;-67
2021/06/26 07:07:02;;;;;;;;;;;20.70;64.20;;;;;;5053304;28;19938;-67
2021/06/26 07:09:28;;;;;;;;;;;20.80;63.30;;;;;;5057557;28;19924;-67
2021/06/26 07:11:53;;;;;;;;;;;21.00;64.10;;;;;;5054247;28;19948;-67
2021/06/26 07:14:19;;;;;;;;;;;21.30;62.90;;;;;;5046662;28;19916;-68
2021/06/26 07:16:44;;;;;;;;;;;21.30;61.20;;;;;;5056470;28;19940;-68
2021/06/26 07:19:10;;;;;;;;;;;21.50;61.70;;;;;;5059377;28;20341;-68
2021/06/26 07:21:35;;;;;;;;;;;21.50;60.60;;;;;;5056774;28;19924;-68
2021/06/26 07:24:01;;;;;;;;;;;21.70;58.80;;;;;;5052749;28;19926;-68
2021/06/26 07:26:26;;;;;;;;;;;21.90;61.00;;;;;;5061126;28;19932;-69
2021/06/26 07:28:52;;;;;;;;;;;21.80;59.00;;;;;;5058130;28;20363;-68
2021/06/26 07:31:17;;;;;;;;;;;22.00;59.70;;;;;;5053936;28;19928;-68
2021/06/26 07:33:43;;;;;;;;;;;21.90;59.10;;;;;;5058022;28;19923;-68
2021/06/26 07:36:08;;;;;;;;;;;22.00;59.30;;;;;;5058020;28;19952;-68
2021/06/26 07:38:34;;;;;;;;;;;22.00;57.90;;;;;;5057252;28;19950;-68
2021/06/26 07:40:59;;;;;;;;;;;22.40;59.10;;;;;;5058537;28;19920;-69
2021/06/26 07:43:25;;;;;;;;;;;22.30;51.20;;;;;;5060995;28;19923;-69
2021/06/26 07:45:51;;;;;;;;;;;22.20;48.00;;;;;;5057310;28;19912;-68
2021/06/26 07:48:17;;;;;;;;;;;22.40;50.60;;;;;;5055822;28;19913;-69
2021/06/26 07:50:42;;;;;;;;;;;22.30;48.30;;;;;;5055832;28;19916;-66
2021/06/26 07:53:07;;;;;;;;;;;22.10;56.50;;;;;;5060371;28;20057;-68
2021/06/26 07:55:34;;;;;;;;;;;22.00;58.00;;;;;;5059010;28;19928;-68
2021/06/26 07:57:59;;;;;;;;;;;22.10;60.10;;;;;;5057147;28;19913;-68
2021/06/26 08:00:25;;;;;;;;;;;22.30;59.70;;;;;;5058253;28;20388;-68
2021/06/26 08:02:50;;;;;;;;;;;22.20;57.80;;;;;;5049543;28;20034;-68
2021/06/26 08:05:16;;;;;;;;;;;22.70;57.40;;;;;;5056107;28;19973;-69
2021/06/26 08:07:41;;;;;;;;;;;22.80;55.20;;;;;;5055178;28;20340;-67
2021/06/26 08:10:07;;;;;;;;;;;22.50;54.80;;;;;;5062556;28;19916;-68
2021/06/26 08:12:33;;;;;;;;;;;22.90;57.70;;;;;;5051939;28;19912;-69
2021/06/26 08:14:58;;;;;;;;;;;23.30;56.80;;;;;;5048557;28;19927;-68
2021/06/26 08:17:24;;;;;;;;;;;23.50;57.40;;;;;;5054459;28;20125;-68
2021/06/26 08:19:49;;;;;;;;;;;23.40;53.00;;;;;;5059907;28;19921;-68
2021/06/26 08:22:15;;;;;;;;;;;23.00;53.30;;;;;;5054677;28;19996;-67
2021/06/26 08:24:41;;;;;;;;;;;23.00;53.30;;;;;;5056321;28;20082;-68
2021/06/26 08:27:07;;;;;;;;;;;22.80;52.30;;;;;;5060853;28;20027;-68
2021/06/26 08:29:33;;;;;;;;;;;23.00;51.40;;;;;;5062362;28;19984;-68
2021/06/26 08:31:58;;;;;;;;;;;23.30;54.70;;;;;;5062296;28;19926;-68
2021/06/26 08:34:24;;;;;;;;;;;23.30;49.30;;;;;;5059275;28;19989;-68
2021/06/26 08:36:50;;;;;;;;;;;23.30;49.90;;;;;;5060853;28;20044;-68
2021/06/26 08:39:19;;;;;;;;;;;23.80;50.10;;;;;;5055498;28;19925;-68
2021/06/26 08:41:46;;;;;;;;;;;23.20;47.30;;;;;;5063692;28;20027;-69
2021/06/26 08:44:12;;;;;;;;;;;23.30;48.70;;;;;;5062089;28;19920;-68
2021/06/26 08:46:41;;;;;;;;;;;23.50;48.10;;;;;;5065171;28;19920;-68
2021/06/26 08:49:07;;;;;;;;;;;23.90;47.70;;;;;;5055072;28;19972;-68
2021/06/26 08:51:33;;;;;;;;;;;23.70;46.70;;;;;;5062041;28;20356;-68
2021/06/26 08:53:58;;;;;;;;;;;23.50;48.00;;;;;;5061625;28;20313;-68
2021/06/26 08:56:24;;;;;;;;;;;24.10;48.60;;;;;;5055721;28;20003;-69
2021/06/26 08:58:49;;;;;;;;;;;24.50;47.30;;;;;;5061640;28;19966;-69
2021/06/26 09:01:15;;;;;;;;;;;24.70;43.80;;;;;;5062553;28;19917;-68
2021/06/26 09:03:40;;;;;;;;;;;24.50;44.70;;;;;;5058939;28;20003;-68
2021/06/26 09:06:08;;;;;;;;;;;24.50;46.40;;;;;;5057419;28;19912;-68
2021/06/26 09:08:34;;;;;;;;;;;24.80;47.70;;;;;;5057593;28;19962;-68
2021/06/26 09:10:59;;;;;;;;;;;24.70;45.40;;;;;;5027227;28;19968;-68
2021/06/26 09:13:32;;;;;;;;;;;24.70;45.50;;;;;;5059289;28;19981;-69
2021/06/26 09:16:08;;;;;;;;;;;25.20;45.50;;;;;;5058699;28;20319;-69
2021/06/26 09:18:42;;;;;;;;;;;25.50;44.10;;;;;;5057142;28;19974;-69
2021/06/26 09:21:35;;;;;;;;;;;25.10;44.60;;;;;;5054273;28;19921;-69
2021/06/26 09:24:03;;;;;;;;;;;24.60;45.00;;;;;;5062111;28;19923;-69
2021/06/26 09:26:29;;;;;;;;;;;25.00;44.40;;;;;;5039598;28;19963;-69
2021/06/26 09:28:54;;;;;;;;;;;24.90;45.90;;;;;;5038520;28;19912;-69
2021/06/26 09:31:23;;;;;;;;;;;25.00;46.10;;;;;;5057763;28;19956;-69
2021/06/26 09:33:56;;;;;;;;;;;25.00;47.70;;;;;;5050940;28;20007;-69
2021/06/26 09:36:23;;;;;;;;;;;24.40;46.00;;;;;;5058082;28;19963;-67
2021/06/26 09:38:59;;;;;;;;;;;24.60;45.90;;;;;;5060439;28;19942;-69
2021/06/26 09:41:25;;;;;;;;;;;24.40;47.00;;;;;;5063040;28;20254;-70
2021/06/26 09:43:50;;;;;;;;;;;24.50;47.80;;;;;;5052781;28;19923;-71
2021/06/26 09:46:17;;;;;;;;;;;24.90;45.20;;;;;;5060199;28;19968;-68
2021/06/26 09:48:55;;;;;;;;;;;25.40;44.60;;;;;;5060865;28;19947;-69
2021/06/26 09:51:23;;;;;;;;;;;25.90;45.40;;;;;;5070172;28;20015;-69
2021/06/26 09:54:09;;;;;;;;;;;26.20;43.90;;;;;;5062155;28;20069;-69
2021/06/26 09:56:39;;;;;;;;;;;27.00;40.30;;;;;;5061404;28;20422;-69
2021/06/26 09:59:04;;;;;;;;;;;26.40;42.20;;;;;;5054621;28;19922;-69
2021/06/26 10:01:31;;;;;;;;;;;26.00;42.70;;;;;;5057711;28;19996;-69
2021/06/26 10:03:58;;;;;;;;;;;26.30;42.90;;;;;;5052359;28;20147;-69
2021/06/26 10:06:24;;;;;;;;;;;26.80;45.30;;;;;;5057530;28;19970;-70
2021/06/26 10:08:49;;;;;;;;;;;26.90;42.00;;;;;;5050703;28;19916;-69
2021/06/26 10:11:15;;;;;;;;;;;27.20;40.70;;;;;;5060302;28;19912;-69
2021/06/26 10:13:41;;;;;;;;;;;27.20;43.40;;;;;;5038840;28;20251;-70
2021/06/26 10:16:06;;;;;;;;;;;27.20;40.90;;;;;;5056308;28;20121;-70
2021/06/26 10:18:34;;;;;;;;;;;27.30;39.80;;;;;;5061234;28;19979;-70
2021/06/26 10:21:01;;;;;;;;;;;27.40;40.00;;;;;;5059209;28;20431;-69
2021/06/26 10:23:30;;;;;;;;;;;27.50;41.80;;;;;;5052010;28;20351;-69
2021/06/26 10:25:57;;;;;;;;;;;27.30;43.50;;;;;;5060429;28;20345;-69
2021/06/26 10:28:23;;;;;;;;;;;26.50;44.30;;;;;;5057462;28;19981;-68
2021/06/26 10:31:02;;;;;;;;;;;26.40;44.40;;;;;;5057795;28;19917;-70
2021/06/26 10:33:31;;;;;;;;;;;26.70;44.00;;;;;;5058380;28;19920;-70
2021/06/26 10:35:58;;;;;;;;;;;26.60;44.00;;;;;;5053603;28;20377;-68
2021/06/26 10:38:23;;;;;;;;;;;26.70;42.80;;;;;;5057503;28;19920;-68
2021/06/26 10:40:50;;;;;;;;;;;26.30;44.50;;;;;;5057087;28;20302;-70
2021/06/26 10:43:17;;;;;;;;;;;27.00;43.10;;;;;;5057687;28;20327;-69
2021/06/26 10:45:44;;;;;;;;;;;27.20;42.70;;;;;;5054711;28;19912;-69
2021/06/26 10:48:29;;;;;;;;;;;27.40;43.10;;;;;;5054347;28;19970;-69
2021/06/26 10:50:55;;;;;;;;;;;27.30;43.70;;;;;;5058801;28;20043;-69
2021/06/26 10:53:29;;;;;;;;;;;27.30;42.80;;;;;;5056895;28;20089;-69
2021/06/26 10:56:06;;;;;;;;;;;28.00;42.50;;;;;;5053893;28;20428;-70
2021/06/26 10:58:33;;;;;;;;;;;28.50;44.20;;;;;;5058032;28;19952;-70
2021/06/26 11:00:58;;;;;;;;;;;28.40;38.90;;;;;;5060317;28;19916;-69
2021/06/26 11:03:31;;;;;;;;;;;28.20;39.40;;;;;;5059454;28;20387;-69
2021/06/26 11:05:58;;;;;;;;;;;28.60;39.20;;;;;;5055427;28;19931;-69
2021/06/26 11:08:24;;;;;;;;;;;28.00;40.80;;;;;;5059276;28;19955;-69
2021/06/26 11:11:00;;;;;;;;;;;27.40;41.30;;;;;;5063938;28;19986;-69
2021/06/26 11:13:29;;;;;;;;;;;27.60;41.10;;;;;;5053554;28;19947;-69
2021/06/26 11:15:56;;;;;;;;;;;27.50;41.60;;;;;;5048810;28;19927;-69
2021/06/26 11:18:21;;;;;;;;;;;26.80;43.90;;;;;;5065722;28;20048;-69
2021/06/26 11:20:47;;;;;;;;;;;26.40;43.00;;;;;;5057472;28;20338;-70
2021/06/26 11:23:17;;;;;;;;;;;26.10;44.10;;;;;;5064566;28;20281;-69
2021/06/26 11:25:42;;;;;;;;;;;26.60;45.80;;;;;;5056778;28;20218;-69
2021/06/26 11:28:12;;;;;;;;;;;27.00;43.40;;;;;;5062649;28;19928;-69
2021/06/26 11:30:40;;;;;;;;;;;27.70;43.40;;;;;;5060915;28;19943;-69
2021/06/26 11:33:05;;;;;;;;;;;27.50;40.40;;;;;;5062105;28;20012;-69
2021/06/26 11:35:35;;;;;;;;;;;26.90;42.00;;;;;;5061746;28;20506;-69
2021/06/26 11:38:02;;;;;;;;;;;26.60;44.20;;;;;;5062692;28;20384;-69
2021/06/26 11:40:29;;;;;;;;;;;26.50;43.50;;;;;;5064029;28;20410;-69
2021/06/26 11:43:02;;;;;;;;;;;27.40;41.90;;;;;;5061616;28;20011;-69
2021/06/26 11:45:30;;;;;;;;;;;28.20;42.90;;;;;;5064013;28;19917;-68
2021/06/26 11:48:06;;;;;;;;;;;28.20;39.30;;;;;;5062491;28;19993;-69
2021/06/26 11:50:33;;;;;;;;;;;28.40;39.30;;;;;;5060875;28;20012;-69
2021/06/26 11:53:05;;;;;;;;;;;27.80;42.50;;;;;;5063735;28;19927;-68
2021/06/26 11:55:37;;;;;;;;;;;27.70;41.90;;;;;;5060713;28;20003;-69
2021/06/26 11:58:02;;;;;;;;;;;27.50;40.40;;;;;;5044102;28;19928;-69
2021/06/26 12:00:28;;;;;;;;;;;28.40;38.60;;;;;;5065005;28;19949;-69
2021/06/26 12:02:53;;;;;;;;;;;28.60;39.60;;;;;;5046537;28;20012;-68
2021/06/26 12:05:22;;;;;;;;;;;28.90;38.70;;;;;;5057740;28;20351;-69
2021/06/26 12:07:48;;;;;;;;;;;29.30;39.70;;;;;;5055516;28;19920;-68
2021/06/26 12:10:14;;;;;;;;;;;29.90;38.00;;;;;;5055479;28;20427;-69
2021/06/26 12:12:40;;;;;;;;;;;29.60;36.40;;;;;;5055767;28;19940;-68
2021/06/26 12:15:10;;;;;;;;;;;29.10;37.90;;;;;;5057209;28;19912;-70
2021/06/26 12:17:36;;;;;;;;;;;28.90;38.10;;;;;;5033833;28;19928;-69
2021/06/26 12:20:05;;;;;;;;;;;28.90;39.50;;;;;;5056070;28;19925;-69
2021/06/26 12:22:30;;;;;;;;;;;29.00;37.50;;;;;;5056896;28;19924;-68
2021/06/26 12:25:05;;;;;;;;;;;28.00;39.30;;;;;;5058419;28;21378;-69
2021/06/26 12:27:31;;;;;;;;;;;27.60;39.80;;;;;;5054315;28;19939;-69
2021/06/26 12:30:00;;;;;;;;;;;28.70;38.00;;;;;;5059066;28;20067;-68
2021/06/26 12:32:33;;;;;;;;;;;29.00;37.00;;;;;;5056454;28;19924;-68
2021/06/26 12:34:58;;;;;;;;;;;29.70;36.60;;;;;;5056931;28;19916;-69
2021/06/26 12:37:28;;;;;;;;;;;29.50;38.40;;;;;;5054109;28;19939;-69
2021/06/26 12:40:08;;;;;;;;;;;30.50;36.20;;;;;;5049532;28;19948;-69
2021/06/26 12:42:57;;;;;;;;;;;30.80;34.40;;;;;;5056000;28;19928;-69
2021/06/26 12:45:30;;;;;;;;;;;30.90;36.20;;;;;;5049080;28;20002;-68
2021/06/26 12:47:56;;;;;;;;;;;29.90;36.80;;;;;;5054703;28;20026;-69
2021/06/26 12:50:22;;;;;;;;;;;29.30;37.90;;;;;;4989785;28;1796404;-68
2021/06/26 12:52:50;;;;;;;;;;;28.80;40.60;;;;;;5058519;28;20450;-69
2021/06/26 12:55:16;;;;;;;;;;;28.50;38.30;;;;;;5058666;28;19924;-68
2021/06/26 12:57:42;;;;;;;;;;;28.50;41.60;;;;;;5058588;28;20376;-67
2021/06/26 13:00:15;;;;;;;;;;;28.60;41.00;;;;;;5059223;28;19932;-68
2021/06/26 13:02:40;;;;;;;;;;;27.70;41.50;;;;;;5056777;28;19916;-68
2021/06/26 13:05:16;;;;;;;;;;;27.80;42.60;;;;;;5045985;28;19920;-69
2021/06/26 13:07:41;;;;;;;;;;;28.70;42.70;;;;;;5050221;28;19994;-68
2021/06/26 13:10:07;;;;;;;;;;;29.80;40.70;;;;;;5056547;28;20383;-69
2021/06/26 13:12:32;;;;;;;;;;;29.50;39.30;;;;;;5061230;28;19943;-69
2021/06/26 13:14:59;;;;;;;;;;;30.20;37.40;;;;;;5054877;28;20412;-69
2021/06/26 13:17:24;;;;;;;;;;;29.50;37.00;;;;;;5055614;28;19938;-69
2021/06/26 13:19:51;;;;;;;;;;;28.90;37.40;;;;;;5050971;28;19912;-68
2021/06/26 13:22:18;;;;;;;;;;;28.50;38.80;;;;;;5057624;28;20365;-69
2021/06/26 13:24:44;;;;;;;;;;;28.00;39.90;;;;;;5052684;28;19977;-68
2021/06/26 13:27:09;;;;;;;;;;;27.90;40.80;;;;;;5058256;28;19934;-68
2021/06/26 13:29:35;;;;;;;;;;;28.60;42.00;;;;;;5060005;28;20305;-69
2021/06/26 13:32:00;;;;;;;;;;;29.40;39.60;;;;;;5051632;28;20011;-69
2021/06/26 13:34:26;;;;;;;;;;;28.70;41.40;;;;;;5052519;28;19935;-68
2021/06/26 13:36:52;;;;;;;;;;;27.80;41.40;;;;;;5059394;28;19955;-68
2021/06/26 13:39:17;;;;;;;;;;;28.50;40.60;;;;;;5060924;28;20087;-69
2021/06/26 13:41:43;;;;;;;;;;;28.80;41.40;;;;;;5058705;28;19991;-69
2021/06/26 13:44:08;;;;;;;;;;;29.40;37.70;;;;;;5055427;28;19926;-70
2021/06/26 13:46:34;;;;;;;;;;;30.30;36.30;;;;;;5058728;28;19923;-69
2021/06/26 13:48:59;;;;;;;;;;;30.60;35.50;;;;;;5057402;28;20015;-70
2021/06/26 13:51:26;;;;;;;;;;;30.00;35.30;;;;;;5056797;28;20008;-69
2021/06/26 13:53:52;;;;;;;;;;;30.10;35.50;;;;;;5056617;28;19931;-69
2021/06/26 13:56:17;;;;;;;;;;;30.70;36.80;;;;;;5056289;28;19916;-68
2021/06/26 13:58:43;;;;;;;;;;;32.00;37.10;;;;;;5056622;28;20303;-69
2021/06/26 14:01:08;;;;;;;;;;;32.30;34.00;;;;;;5059877;28;19912;-69
2021/06/26 14:03:34;;;;;;;;;;;33.20;32.00;;;;;;5056289;28;20004;-69
2021/06/26 14:05:59;;;;;;;;;;;32.30;32.50;;;;;;5055916;28;19909;-70
2021/06/26 14:08:25;;;;;;;;;;;33.40;32.10;;;;;;5058595;28;19980;-69
2021/06/26 14:10:52;;;;;;;;;;;33.40;32.20;;;;;;5055051;28;20245;-69
2021/06/26 14:13:18;;;;;;;;;;;32.60;33.00;;;;;;5059026;28;20296;-69